sensor_id;sensor_type;location;lat;lon;timestamp;pressure;altitude;pressure_sealevel;temperature;humidity
75996;BME280;64681;49.738;9.004;2023-09-30T00:00:00;100292.81;;;16.81;79.39
75996;BME280;64681;49.738;9.004;2023-09-30T00:02:26;100295.22;;;16.86;79.48
75996;BME280;64681;49.738;9.004;2023-09-30T00:04:52;100303.31;;;16.86;79.70
75996;BME280;64681;49.738;9.004;2023-09-30T00:07:18;100300.44;;;16.46;80.87
75996;BME280;64681;49.738;9.004;2023-09-30T00:09:43;100306.34;;;16.68;80.28
75996;BME280;64681;49.738;9.004;2023-09-30T00:12:09;100300.63;;;16.54;81.40
75996;BME280;64681;49.738;9.004;2023-09-30T00:14:35;100305.50;;;16.64;80.54
75996;BME280;64681;49.738;9.004;2023-09-30T00:17:01;100311.69;;;16.81;80.11
75996;BME280;64681;49.738;9.004;2023-09-30T00:19:27;100312.78;;;16.64;80.03
75996;BME280;64681;49.738;9.004;2023-09-30T00:21:52;100305.56;;;16.84;79.47
75996;BME280;64681;49.738;9.004;2023-09-30T00:24:18;100313.50;;;16.76;79.58
75996;BME280;64681;49.738;9.004;2023-09-30T00:26:43;100319.88;;;16.84;79.11
75996;BME280;64681;49.738;9.004;2023-09-30T00:29:09;100321.16;;;16.90;78.77
75996;BME280;64681;49.738;9.004;2023-09-30T00:31:35;100323.78;;;16.87;79.06
75996;BME280;64681;49.738;9.004;2023-09-30T00:34:01;100330.63;;;16.68;79.21
75996;BME280;64681;49.738;9.004;2023-09-30T00:36:26;100343.44;;;16.87;78.33
75996;BME280;64681;49.738;9.004;2023-09-30T00:38:52;100334.56;;;16.87;78.43
75996;BME280;64681;49.738;9.004;2023-09-30T00:41:18;100338.13;;;16.75;77.58
75996;BME280;64681;49.738;9.004;2023-09-30T00:43:46;100329.59;;;16.73;77.93
75996;BME280;64681;49.738;9.004;2023-09-30T00:46:22;100341.34;;;16.65;77.88
75996;BME280;64681;49.738;9.004;2023-09-30T00:48:50;100341.28;;;16.77;77.70
75996;BME280;64681;49.738;9.004;2023-09-30T00:51:17;100345.88;;;16.76;78.18
75996;BME280;64681;49.738;9.004;2023-09-30T00:53:43;100351.53;;;16.71;78.31
75996;BME280;64681;49.738;9.004;2023-09-30T00:56:10;100357.69;;;16.56;79.43
75996;BME280;64681;49.738;9.004;2023-09-30T00:58:38;100361.88;;;16.69;78.79
75996;BME280;64681;49.738;9.004;2023-09-30T01:01:04;100362.22;;;16.68;78.39
75996;BME280;64681;49.738;9.004;2023-09-30T01:03:30;100362.63;;;16.54;78.85
75996;BME280;64681;49.738;9.004;2023-09-30T01:05:56;100358.91;;;16.58;79.03
75996;BME280;64681;49.738;9.004;2023-09-30T01:08:22;100357.97;;;16.67;78.89
75996;BME280;64681;49.738;9.004;2023-09-30T01:10:48;100359.47;;;16.52;79.54
75996;BME280;64681;49.738;9.004;2023-09-30T01:13:14;100360.09;;;16.45;79.88
75996;BME280;64681;49.738;9.004;2023-09-30T01:15:40;100364.09;;;16.51;79.82
75996;BME280;64681;49.738;9.004;2023-09-30T01:18:05;100361.47;;;16.39;80.82
75996;BME280;64681;49.738;9.004;2023-09-30T01:20:31;100365.41;;;16.57;79.68
75996;BME280;64681;49.738;9.004;2023-09-30T01:22:57;100367.94;;;16.50;80.24
75996;BME280;64681;49.738;9.004;2023-09-30T01:25:24;100362.09;;;16.48;80.28
75996;BME280;64681;49.738;9.004;2023-09-30T01:27:50;100365.84;;;16.43;80.29
75996;BME280;64681;49.738;9.004;2023-09-30T01:30:17;100360.53;;;16.47;80.23
75996;BME280;64681;49.738;9.004;2023-09-30T01:32:43;100361.19;;;16.28;81.61
75996;BME280;64681;49.738;9.004;2023-09-30T01:35:09;100363.38;;;16.10;82.67
75996;BME280;64681;49.738;9.004;2023-09-30T01:37:35;100358.81;;;16.26;81.87
75996;BME280;64681;49.738;9.004;2023-09-30T01:40:02;100367.28;;;16.41;81.04
75996;BME280;64681;49.738;9.004;2023-09-30T01:42:29;100370.72;;;16.25;81.99
75996;BME280;64681;49.738;9.004;2023-09-30T01:44:55;100376.38;;;16.20;82.19
75996;BME280;64681;49.738;9.004;2023-09-30T01:47:22;100369.91;;;16.09;82.79
75996;BME280;64681;49.738;9.004;2023-09-30T01:49:47;100377.56;;;15.94;82.68
75996;BME280;64681;49.738;9.004;2023-09-30T01:52:13;100384.88;;;15.81;82.66
75996;BME280;64681;49.738;9.004;2023-09-30T01:54:38;100384.81;;;16.06;82.35
75996;BME280;64681;49.738;9.004;2023-09-30T01:57:04;100386.41;;;15.82;82.24
75996;BME280;64681;49.738;9.004;2023-09-30T01:59:29;100385.88;;;15.89;82.07
75996;BME280;64681;49.738;9.004;2023-09-30T02:01:55;100385.41;;;16.00;81.65
75996;BME280;64681;49.738;9.004;2023-09-30T02:04:20;100380.84;;;15.88;82.08
75996;BME280;64681;49.738;9.004;2023-09-30T02:06:46;100378.81;;;15.72;82.92
75996;BME280;64681;49.738;9.004;2023-09-30T02:09:11;100371.97;;;15.87;82.62
75996;BME280;64681;49.738;9.004;2023-09-30T02:11:38;100369.28;;;15.87;82.86
75996;BME280;64681;49.738;9.004;2023-09-30T02:14:06;100371.88;;;15.83;82.85
75996;BME280;64681;49.738;9.004;2023-09-30T02:16:32;100364.59;;;15.59;84.00
75996;BME280;64681;49.738;9.004;2023-09-30T02:18:58;100372.13;;;15.66;83.82
75996;BME280;64681;49.738;9.004;2023-09-30T02:21:23;100371.72;;;15.80;82.94
75996;BME280;64681;49.738;9.004;2023-09-30T02:23:49;100362.88;;;15.67;83.25
75996;BME280;64681;49.738;9.004;2023-09-30T02:26:15;100368.53;;;15.49;84.28
75996;BME280;64681;49.738;9.004;2023-09-30T02:28:40;100366.06;;;15.44;84.76
75996;BME280;64681;49.738;9.004;2023-09-30T02:31:06;100364.13;;;15.57;83.88
75996;BME280;64681;49.738;9.004;2023-09-30T02:33:35;100366.75;;;15.41;84.86
75996;BME280;64681;49.738;9.004;2023-09-30T02:36:01;100372.00;;;15.25;86.01
75996;BME280;64681;49.738;9.004;2023-09-30T02:38:30;100381.09;;;15.08;87.25
75996;BME280;64681;49.738;9.004;2023-09-30T02:40:57;100380.53;;;15.15;86.70
75996;BME280;64681;49.738;9.004;2023-09-30T02:43:22;100382.22;;;15.32;85.90
75996;BME280;64681;49.738;9.004;2023-09-30T02:45:48;100384.34;;;15.26;86.29
75996;BME280;64681;49.738;9.004;2023-09-30T02:48:13;100385.59;;;15.41;85.57
75996;BME280;64681;49.738;9.004;2023-09-30T02:50:42;100390.63;;;15.43;85.74
75996;BME280;64681;49.738;9.004;2023-09-30T02:53:10;100391.72;;;15.66;84.38
75996;BME280;64681;49.738;9.004;2023-09-30T02:55:36;100399.91;;;15.70;84.37
75996;BME280;64681;49.738;9.004;2023-09-30T02:58:02;100392.84;;;15.65;84.48
75996;BME280;64681;49.738;9.004;2023-09-30T03:00:27;100384.00;;;15.52;84.97
75996;BME280;64681;49.738;9.004;2023-09-30T03:03:00;100376.84;;;15.32;85.65
75996;BME280;64681;49.738;9.004;2023-09-30T03:05:27;100391.28;;;15.64;83.77
75996;BME280;64681;49.738;9.004;2023-09-30T03:07:56;100390.81;;;15.87;82.08
75996;BME280;64681;49.738;9.004;2023-09-30T03:10:21;100401.28;;;15.51;84.04
75996;BME280;64681;49.738;9.004;2023-09-30T03:12:58;100411.03;;;15.69;82.91
75996;BME280;64681;49.738;9.004;2023-09-30T03:15:28;100418.44;;;15.59;83.05
75996;BME280;64681;49.738;9.004;2023-09-30T03:17:56;100416.06;;;15.70;83.33
75996;BME280;64681;49.738;9.004;2023-09-30T03:20:23;100418.22;;;15.77;83.50
75996;BME280;64681;49.738;9.004;2023-09-30T03:22:51;100424.50;;;15.69;84.18
75996;BME280;64681;49.738;9.004;2023-09-30T03:25:19;100415.19;;;15.54;84.98
75996;BME280;64681;49.738;9.004;2023-09-30T03:27:46;100421.00;;;15.68;84.09
75996;BME280;64681;49.738;9.004;2023-09-30T03:30:13;100414.94;;;15.71;84.05
75996;BME280;64681;49.738;9.004;2023-09-30T03:32:40;100413.41;;;15.58;83.63
75996;BME280;64681;49.738;9.004;2023-09-30T03:35:11;100402.75;;;15.37;84.84
75996;BME280;64681;49.738;9.004;2023-09-30T03:37:40;100388.59;;;15.52;84.22
75996;BME280;64681;49.738;9.004;2023-09-30T03:40:07;100375.91;;;15.52;84.50
75996;BME280;64681;49.738;9.004;2023-09-30T03:42:46;100369.53;;;15.70;83.39
75996;BME280;64681;49.738;9.004;2023-09-30T03:45:15;100374.66;;;15.75;83.22
75996;BME280;64681;49.738;9.004;2023-09-30T03:47:42;100384.47;;;15.42;84.29
75996;BME280;64681;49.738;9.004;2023-09-30T03:50:09;100397.25;;;15.58;83.62
75996;BME280;64681;49.738;9.004;2023-09-30T03:52:40;100403.06;;;15.72;83.30
75996;BME280;64681;49.738;9.004;2023-09-30T03:55:12;100403.53;;;15.49;84.31
75996;BME280;64681;49.738;9.004;2023-09-30T03:57:39;100404.66;;;15.48;84.87
75996;BME280;64681;49.738;9.004;2023-09-30T04:00:06;100413.81;;;15.60;83.81
75996;BME280;64681;49.738;9.004;2023-09-30T04:02:32;100427.97;;;15.69;83.49
75996;BME280;64681;49.738;9.004;2023-09-30T04:04:58;100428.09;;;15.60;84.38
75996;BME280;64681;49.738;9.004;2023-09-30T04:07:25;100440.75;;;15.60;84.60
75996;BME280;64681;49.738;9.004;2023-09-30T04:09:54;100435.25;;;15.44;85.49
75996;BME280;64681;49.738;9.004;2023-09-30T04:12:21;100417.78;;;15.38;86.36
75996;BME280;64681;49.738;9.004;2023-09-30T04:14:49;100415.16;;;15.29;86.40
75996;BME280;64681;49.738;9.004;2023-09-30T04:17:14;100426.84;;;15.33;86.19
75996;BME280;64681;49.738;9.004;2023-09-30T04:19:40;100425.63;;;15.30;86.39
75996;BME280;64681;49.738;9.004;2023-09-30T04:22:05;100419.91;;;15.32;86.21
75996;BME280;64681;49.738;9.004;2023-09-30T04:24:31;100428.38;;;15.22;86.88
75996;BME280;64681;49.738;9.004;2023-09-30T04:26:57;100428.53;;;15.38;86.00
75996;BME280;64681;49.738;9.004;2023-09-30T04:29:28;100422.25;;;15.33;86.30
75996;BME280;64681;49.738;9.004;2023-09-30T04:31:55;100430.97;;;15.18;86.73
75996;BME280;64681;49.738;9.004;2023-09-30T04:34:21;100430.41;;;15.12;87.38
75996;BME280;64681;49.738;9.004;2023-09-30T04:36:47;100425.34;;;15.11;87.12
75996;BME280;64681;49.738;9.004;2023-09-30T04:39:13;100429.41;;;15.17;86.58
75996;BME280;64681;49.738;9.004;2023-09-30T04:41:40;100435.22;;;15.19;86.50
75996;BME280;64681;49.738;9.004;2023-09-30T04:44:07;100438.16;;;15.14;87.29
75996;BME280;64681;49.738;9.004;2023-09-30T04:46:36;100445.09;;;15.15;87.06
75996;BME280;64681;49.738;9.004;2023-09-30T04:49:07;100449.00;;;15.05;87.35
75996;BME280;64681;49.738;9.004;2023-09-30T04:51:33;100447.22;;;15.22;86.53
75996;BME280;64681;49.738;9.004;2023-09-30T04:53:59;100460.38;;;15.23;86.29
75996;BME280;64681;49.738;9.004;2023-09-30T04:56:25;100463.25;;;15.18;87.34
75996;BME280;64681;49.738;9.004;2023-09-30T04:58:51;100455.22;;;15.43;85.72
75996;BME280;64681;49.738;9.004;2023-09-30T05:01:16;100461.94;;;15.37;84.34
75996;BME280;64681;49.738;9.004;2023-09-30T05:03:44;100458.94;;;15.50;84.15
75996;BME280;64681;49.738;9.004;2023-09-30T05:06:13;100449.59;;;15.23;85.15
75996;BME280;64681;49.738;9.004;2023-09-30T05:08:39;100449.84;;;15.67;82.71
75996;BME280;64681;49.738;9.004;2023-09-30T05:11:04;100447.03;;;15.64;82.47
75996;BME280;64681;49.738;9.004;2023-09-30T05:13:30;100457.81;;;15.76;81.54
75996;BME280;64681;49.738;9.004;2023-09-30T05:15:56;100451.63;;;15.51;82.66
75996;BME280;64681;49.738;9.004;2023-09-30T05:18:21;100455.13;;;15.51;83.52
75996;BME280;64681;49.738;9.004;2023-09-30T05:20:47;100461.75;;;15.54;83.10
75996;BME280;64681;49.738;9.004;2023-09-30T05:23:14;100460.91;;;15.16;84.04
75996;BME280;64681;49.738;9.004;2023-09-30T05:25:40;100454.16;;;14.98;84.72
75996;BME280;64681;49.738;9.004;2023-09-30T05:28:05;100454.41;;;15.05;84.40
75996;BME280;64681;49.738;9.004;2023-09-30T05:30:32;100457.28;;;15.00;84.96
75996;BME280;64681;49.738;9.004;2023-09-30T05:32:59;100469.94;;;14.99;84.60
75996;BME280;64681;49.738;9.004;2023-09-30T05:35:25;100478.19;;;14.82;85.27
75996;BME280;64681;49.738;9.004;2023-09-30T05:37:52;100479.88;;;14.65;86.34
75996;BME280;64681;49.738;9.004;2023-09-30T05:40:19;100475.16;;;14.41;87.63
75996;BME280;64681;49.738;9.004;2023-09-30T05:42:53;100477.00;;;14.49;87.12
75996;BME280;64681;49.738;9.004;2023-09-30T05:45:21;100472.44;;;14.29;88.93
75996;BME280;64681;49.738;9.004;2023-09-30T05:47:48;100464.59;;;14.15;89.17
75996;BME280;64681;49.738;9.004;2023-09-30T05:50:14;100467.91;;;14.20;88.79
75996;BME280;64681;49.738;9.004;2023-09-30T05:52:43;100476.59;;;14.17;89.21
75996;BME280;64681;49.738;9.004;2023-09-30T05:55:10;100477.34;;;14.27;88.28
75996;BME280;64681;49.738;9.004;2023-09-30T05:57:36;100481.72;;;14.31;87.92
75996;BME280;64681;49.738;9.004;2023-09-30T06:00:02;100474.91;;;14.34;87.87
75996;BME280;64681;49.738;9.004;2023-09-30T06:02:49;100485.53;;;14.30;87.86
75996;BME280;64681;49.738;9.004;2023-09-30T06:05:15;100486.44;;;14.34;87.44
75996;BME280;64681;49.738;9.004;2023-09-30T06:07:48;100493.03;;;14.37;87.55
75996;BME280;64681;49.738;9.004;2023-09-30T06:10:14;100494.09;;;14.45;87.07
75996;BME280;64681;49.738;9.004;2023-09-30T06:12:50;100497.41;;;14.50;86.42
75996;BME280;64681;49.738;9.004;2023-09-30T06:15:21;100487.94;;;14.65;85.63
75996;BME280;64681;49.738;9.004;2023-09-30T06:17:55;100491.53;;;14.91;84.52
75996;BME280;64681;49.738;9.004;2023-09-30T06:20:21;100494.34;;;14.94;83.83
75996;BME280;64681;49.738;9.004;2023-09-30T06:22:51;100485.28;;;14.99;84.27
75996;BME280;64681;49.738;9.004;2023-09-30T06:25:20;100488.97;;;15.52;82.31
75996;BME280;64681;49.738;9.004;2023-09-30T06:27:47;100491.63;;;15.86;81.29
75996;BME280;64681;49.738;9.004;2023-09-30T06:30:17;100496.19;;;15.98;80.93
75996;BME280;64681;49.738;9.004;2023-09-30T06:32:43;100502.38;;;15.98;80.69
75996;BME280;64681;49.738;9.004;2023-09-30T06:35:09;100504.06;;;16.03;80.60
75996;BME280;64681;49.738;9.004;2023-09-30T06:37:41;100504.03;;;16.16;80.41
75996;BME280;64681;49.738;9.004;2023-09-30T06:40:08;100509.28;;;16.37;79.80
75996;BME280;64681;49.738;9.004;2023-09-30T06:42:35;100518.03;;;16.46;79.15
75996;BME280;64681;49.738;9.004;2023-09-30T06:45:04;100524.69;;;16.77;78.20
75996;BME280;64681;49.738;9.004;2023-09-30T06:47:33;100523.56;;;16.78;75.26
75996;BME280;64681;49.738;9.004;2023-09-30T06:50:03;100523.66;;;16.82;74.70
75996;BME280;64681;49.738;9.004;2023-09-30T06:52:38;100522.34;;;17.04;74.91
75996;BME280;64681;49.738;9.004;2023-09-30T06:55:05;100527.78;;;16.91;75.23
75996;BME280;64681;49.738;9.004;2023-09-30T06:57:35;100532.38;;;16.50;76.24
75996;BME280;64681;49.738;9.004;2023-09-30T07:00:01;100524.44;;;16.29;77.26
75996;BME280;64681;49.738;9.004;2023-09-30T07:02:29;100536.47;;;16.19;77.49
75996;BME280;64681;49.738;9.004;2023-09-30T07:04:55;100534.03;;;16.02;78.18
75996;BME280;64681;49.738;9.004;2023-09-30T07:07:20;100529.19;;;16.20;77.72
75996;BME280;64681;49.738;9.004;2023-09-30T07:09:46;100532.91;;;16.15;78.33
75996;BME280;64681;49.738;9.004;2023-09-30T07:12:11;100540.19;;;16.27;77.80
75996;BME280;64681;49.738;9.004;2023-09-30T07:14:37;100531.53;;;16.34;77.26
75996;BME280;64681;49.738;9.004;2023-09-30T07:17:03;100527.25;;;16.33;76.69
75996;BME280;64681;49.738;9.004;2023-09-30T07:19:30;100543.22;;;16.13;76.97
75996;BME280;64681;49.738;9.004;2023-09-30T07:21:56;100551.31;;;16.13;75.94
75996;BME280;64681;49.738;9.004;2023-09-30T07:24:21;100553.56;;;16.23;76.54
75996;BME280;64681;49.738;9.004;2023-09-30T07:26:47;100560.50;;;16.37;76.38
75996;BME280;64681;49.738;9.004;2023-09-30T07:29:12;100575.63;;;16.54;76.31
75996;BME280;64681;49.738;9.004;2023-09-30T07:31:38;100564.84;;;16.66;76.42
75996;BME280;64681;49.738;9.004;2023-09-30T07:34:03;100558.63;;;16.78;76.27
75996;BME280;64681;49.738;9.004;2023-09-30T07:36:29;100550.38;;;16.87;76.05
75996;BME280;64681;49.738;9.004;2023-09-30T07:38:55;100546.97;;;16.90;76.04
75996;BME280;64681;49.738;9.004;2023-09-30T07:41:21;100539.56;;;16.99;74.94
75996;BME280;64681;49.738;9.004;2023-09-30T07:43:46;100550.22;;;17.08;74.70
75996;BME280;64681;49.738;9.004;2023-09-30T07:46:12;100547.75;;;17.03;74.72
75996;BME280;64681;49.738;9.004;2023-09-30T07:48:37;100547.16;;;17.09;73.81
75996;BME280;64681;49.738;9.004;2023-09-30T07:51:04;100551.66;;;17.05;72.62
75996;BME280;64681;49.738;9.004;2023-09-30T07:53:32;100546.81;;;17.11;73.04
75996;BME280;64681;49.738;9.004;2023-09-30T07:55:57;100541.59;;;17.18;72.92
75996;BME280;64681;49.738;9.004;2023-09-30T07:58:23;100546.16;;;17.30;72.62
75996;BME280;64681;49.738;9.004;2023-09-30T08:00:48;100546.41;;;17.25;72.33
75996;BME280;64681;49.738;9.004;2023-09-30T08:03:14;100541.97;;;17.33;72.41
75996;BME280;64681;49.738;9.004;2023-09-30T08:05:39;100535.91;;;17.52;72.31
75996;BME280;64681;49.738;9.004;2023-09-30T08:08:05;100526.59;;;17.65;72.32
75996;BME280;64681;49.738;9.004;2023-09-30T08:10:31;100539.72;;;17.83;71.94
75996;BME280;64681;49.738;9.004;2023-09-30T08:12:57;100530.66;;;17.91;71.45
75996;BME280;64681;49.738;9.004;2023-09-30T08:15:24;100542.00;;;18.13;71.10
75996;BME280;64681;49.738;9.004;2023-09-30T08:17:50;100542.59;;;18.22;70.19
75996;BME280;64681;49.738;9.004;2023-09-30T08:20:16;100537.41;;;18.33;69.41
75996;BME280;64681;49.738;9.004;2023-09-30T08:22:42;100546.81;;;18.39;69.13
75996;BME280;64681;49.738;9.004;2023-09-30T08:25:08;100546.47;;;18.41;68.77
75996;BME280;64681;49.738;9.004;2023-09-30T08:27:36;100540.00;;;18.45;69.09
75996;BME280;64681;49.738;9.004;2023-09-30T08:30:02;100528.75;;;18.43;69.80
75996;BME280;64681;49.738;9.004;2023-09-30T08:32:34;100526.34;;;18.38;69.40
75996;BME280;64681;49.738;9.004;2023-09-30T08:35:01;100532.22;;;18.24;69.18
75996;BME280;64681;49.738;9.004;2023-09-30T08:37:28;100534.53;;;18.06;68.22
75996;BME280;64681;49.738;9.004;2023-09-30T08:39:53;100531.72;;;18.02;68.13
75996;BME280;64681;49.738;9.004;2023-09-30T08:42:22;100548.56;;;17.96;67.91
75996;BME280;64681;49.738;9.004;2023-09-30T08:44:49;100547.50;;;17.84;68.14
75996;BME280;64681;49.738;9.004;2023-09-30T08:47:16;100547.94;;;18.02;68.21
75996;BME280;64681;49.738;9.004;2023-09-30T08:49:43;100545.50;;;18.13;68.02
75996;BME280;64681;49.738;9.004;2023-09-30T08:52:10;100544.69;;;18.13;67.76
75996;BME280;64681;49.738;9.004;2023-09-30T08:54:37;100551.06;;;18.21;66.67
75996;BME280;64681;49.738;9.004;2023-09-30T08:57:04;100560.97;;;18.32;66.04
75996;BME280;64681;49.738;9.004;2023-09-30T08:59:31;100565.03;;;18.42;65.53
75996;BME280;64681;49.738;9.004;2023-09-30T09:01:59;100567.50;;;18.31;66.14
75996;BME280;64681;49.738;9.004;2023-09-30T09:04:25;100567.63;;;18.55;63.65
75996;BME280;64681;49.738;9.004;2023-09-30T09:06:53;100552.72;;;18.25;65.85
75996;BME280;64681;49.738;9.004;2023-09-30T09:09:19;100549.50;;;18.39;64.74
75996;BME280;64681;49.738;9.004;2023-09-30T09:11:48;100560.03;;;19.00;62.47
75996;BME280;64681;49.738;9.004;2023-09-30T09:14:14;100557.97;;;19.12;63.63
75996;BME280;64681;49.738;9.004;2023-09-30T09:16:55;100560.34;;;19.37;64.24
75996;BME280;64681;49.738;9.004;2023-09-30T09:19:22;100568.25;;;19.46;64.69
75996;BME280;64681;49.738;9.004;2023-09-30T09:21:58;100564.31;;;19.67;62.80
75996;BME280;64681;49.738;9.004;2023-09-30T09:24:33;100557.88;;;19.75;62.07
75996;BME280;64681;49.738;9.004;2023-09-30T09:29:32;100551.50;;;19.87;60.60
75996;BME280;64681;49.738;9.004;2023-09-30T09:32:12;100555.78;;;19.88;58.69
75996;BME280;64681;49.738;9.004;2023-09-30T09:34:40;100563.41;;;20.32;58.71
75996;BME280;64681;49.738;9.004;2023-09-30T09:37:21;100564.00;;;20.76;58.41
75996;BME280;64681;49.738;9.004;2023-09-30T09:39:57;100571.59;;;20.97;54.36
75996;BME280;64681;49.738;9.004;2023-09-30T09:42:28;100564.09;;;20.26;56.75
75996;BME280;64681;49.738;9.004;2023-09-30T09:45:02;100564.91;;;20.30;57.18
75996;BME280;64681;49.738;9.004;2023-09-30T09:47:32;100571.09;;;20.57;55.62
75996;BME280;64681;49.738;9.004;2023-09-30T09:49:59;100572.53;;;20.20;54.26
75996;BME280;64681;49.738;9.004;2023-09-30T09:52:25;100568.38;;;20.27;55.37
75996;BME280;64681;49.738;9.004;2023-09-30T09:54:51;100570.91;;;19.89;56.30
75996;BME280;64681;49.738;9.004;2023-09-30T09:57:18;100566.19;;;20.09;57.05
75996;BME280;64681;49.738;9.004;2023-09-30T09:59:45;100566.06;;;20.29;55.63
75996;BME280;64681;49.738;9.004;2023-09-30T10:02:15;100573.28;;;20.48;56.26
75996;BME280;64681;49.738;9.004;2023-09-30T10:04:46;100573.63;;;20.43;57.89
75996;BME280;64681;49.738;9.004;2023-09-30T10:09:47;100569.03;;;20.20;56.85
75996;BME280;64681;49.738;9.004;2023-09-30T10:12:16;100559.81;;;19.74;56.14
75996;BME280;64681;49.738;9.004;2023-09-30T10:14:42;100545.69;;;20.12;56.03
75996;BME280;64681;49.738;9.004;2023-09-30T10:17:08;100547.56;;;20.07;53.86
75996;BME280;64681;49.738;9.004;2023-09-30T10:19:33;100545.53;;;20.01;54.27
75996;BME280;64681;49.738;9.004;2023-09-30T10:24:51;100538.47;;;20.53;54.43
75996;BME280;64681;49.738;9.004;2023-09-30T10:29:59;100543.25;;;19.80;55.85
75996;BME280;64681;49.738;9.004;2023-09-30T10:40:55;100519.75;;;19.64;58.97
75996;BME280;64681;49.738;9.004;2023-09-30T10:43:31;100527.31;;;19.08;60.23
75996;BME280;64681;49.738;9.004;2023-09-30T10:45:58;100521.91;;;18.89;61.80
75996;BME280;64681;49.738;9.004;2023-09-30T10:51:12;100525.03;;;19.30;60.44
75996;BME280;64681;49.738;9.004;2023-09-30T10:53:45;100509.06;;;19.48;58.38
75996;BME280;64681;49.738;9.004;2023-09-30T10:56:12;100514.53;;;19.28;53.27
75996;BME280;64681;49.738;9.004;2023-09-30T10:58:45;100515.16;;;19.65;53.91
75996;BME280;64681;49.738;9.004;2023-09-30T11:01:14;100520.66;;;19.95;52.86
75996;BME280;64681;49.738;9.004;2023-09-30T11:03:44;100514.56;;;20.32;52.63
75996;BME280;64681;49.738;9.004;2023-09-30T11:06:12;100513.50;;;20.40;54.78
75996;BME280;64681;49.738;9.004;2023-09-30T11:08:45;100514.63;;;20.36;53.65
75996;BME280;64681;49.738;9.004;2023-09-30T11:11:11;100522.56;;;20.21;53.59
75996;BME280;64681;49.738;9.004;2023-09-30T11:13:37;100518.31;;;19.70;53.91
75996;BME280;64681;49.738;9.004;2023-09-30T11:16:05;100515.66;;;19.97;53.25
75996;BME280;64681;49.738;9.004;2023-09-30T11:18:31;100523.22;;;19.84;55.11
75996;BME280;64681;49.738;9.004;2023-09-30T11:21:11;100524.00;;;19.61;55.71
75996;BME280;64681;49.738;9.004;2023-09-30T11:23:40;100537.00;;;19.52;55.88
75996;BME280;64681;49.738;9.004;2023-09-30T11:26:06;100529.91;;;19.01;58.50
75996;BME280;64681;49.738;9.004;2023-09-30T11:28:39;100533.59;;;18.73;56.37
75996;BME280;64681;49.738;9.004;2023-09-30T11:31:10;100517.31;;;18.70;54.31
75996;BME280;64681;49.738;9.004;2023-09-30T11:33:53;100524.22;;;18.67;53.15
75996;BME280;64681;49.738;9.004;2023-09-30T11:36:22;100519.13;;;18.46;55.17
75996;BME280;64681;49.738;9.004;2023-09-30T11:38:50;100522.44;;;18.94;53.39
75996;BME280;64681;49.738;9.004;2023-09-30T11:41:18;100532.53;;;19.17;52.91
75996;BME280;64681;49.738;9.004;2023-09-30T11:44:06;100526.56;;;19.31;54.00
75996;BME280;64681;49.738;9.004;2023-09-30T11:46:56;100512.91;;;19.24;53.11
75996;BME280;64681;49.738;9.004;2023-09-30T11:49:31;100523.31;;;19.45;55.00
75996;BME280;64681;49.738;9.004;2023-09-30T11:51:59;100528.63;;;19.14;53.24
75996;BME280;64681;49.738;9.004;2023-09-30T11:54:45;100524.06;;;19.42;53.63
75996;BME280;64681;49.738;9.004;2023-09-30T11:57:13;100524.66;;;19.55;54.65
75996;BME280;64681;49.738;9.004;2023-09-30T11:59:44;100524.47;;;19.67;53.93
75996;BME280;64681;49.738;9.004;2023-09-30T12:02:11;100522.47;;;19.64;53.30
75996;BME280;64681;49.738;9.004;2023-09-30T12:04:40;100512.97;;;19.51;51.28
75996;BME280;64681;49.738;9.004;2023-09-30T12:07:06;100518.81;;;19.29;50.01
75996;BME280;64681;49.738;9.004;2023-09-30T12:09:34;100521.63;;;19.37;49.27
75996;BME280;64681;49.738;9.004;2023-09-30T12:12:03;100520.56;;;19.18;52.46
75996;BME280;64681;49.738;9.004;2023-09-30T12:14:29;100519.47;;;19.46;52.54
75996;BME280;64681;49.738;9.004;2023-09-30T12:16:56;100517.91;;;19.45;52.33
75996;BME280;64681;49.738;9.004;2023-09-30T12:19:22;100505.69;;;19.55;50.29
75996;BME280;64681;49.738;9.004;2023-09-30T12:21:48;100511.59;;;19.60;49.31
75996;BME280;64681;49.738;9.004;2023-09-30T12:24:15;100516.22;;;19.37;48.96
75996;BME280;64681;49.738;9.004;2023-09-30T12:26:50;100498.91;;;19.18;51.63
75996;BME280;64681;49.738;9.004;2023-09-30T12:29:18;100493.13;;;19.20;52.52
75996;BME280;64681;49.738;9.004;2023-09-30T12:31:47;100501.59;;;19.18;51.12
75996;BME280;64681;49.738;9.004;2023-09-30T12:34:14;100495.81;;;19.20;50.21
75996;BME280;64681;49.738;9.004;2023-09-30T12:36:40;100495.50;;;19.02;51.31
75996;BME280;64681;49.738;9.004;2023-09-30T12:39:07;100498.94;;;18.98;50.27
75996;BME280;64681;49.738;9.004;2023-09-30T12:41:41;100485.69;;;18.93;48.89
75996;BME280;64681;49.738;9.004;2023-09-30T12:44:08;100490.94;;;19.06;50.96
75996;BME280;64681;49.738;9.004;2023-09-30T12:46:34;100485.13;;;19.27;50.68
75996;BME280;64681;49.738;9.004;2023-09-30T12:49:02;100483.50;;;19.22;50.26
75996;BME280;64681;49.738;9.004;2023-09-30T12:51:28;100481.53;;;19.00;52.10
75996;BME280;64681;49.738;9.004;2023-09-30T12:53:54;100482.28;;;19.20;51.83
75996;BME280;64681;49.738;9.004;2023-09-30T12:56:20;100486.63;;;19.24;51.99
75996;BME280;64681;49.738;9.004;2023-09-30T12:58:46;100477.63;;;19.20;48.80
75996;BME280;64681;49.738;9.004;2023-09-30T13:01:11;100482.53;;;19.34;47.46
75996;BME280;64681;49.738;9.004;2023-09-30T13:03:37;100485.88;;;19.27;49.80
75996;BME280;64681;49.738;9.004;2023-09-30T13:06:03;100492.88;;;19.28;51.20
75996;BME280;64681;49.738;9.004;2023-09-30T13:08:29;100479.22;;;19.44;48.86
75996;BME280;64681;49.738;9.004;2023-09-30T13:11:00;100481.44;;;19.39;47.44
75996;BME280;64681;49.738;9.004;2023-09-30T13:13:28;100479.94;;;19.18;49.57